Igaracy, Brazil
Current Conditions -  °F | °C
As of 6:00 AM on Monday 20 Oct 2014 (Local Time) from SBJU Reporting Station
Scattered Clouds Scattered Clouds  
Wind Chill: 81°   Ceiling: Unl
Heat Index: 85°   Visibility: 6mi
Dew Point: 73°   Wind: 3mph
Humidity: 79%   Direction: 170°S
Pressure: 30"   Gusts: NA
Location:  7.18°S, 38.15°W
Report Text: SBJU 200900Z 17003KT 9999 SCT020 27/23 Q1016
Loading
Personal Weather Stations






























Interactive Weather Map
Tropical Storm Tracking
New forecast layout! Learn more

10-Day Weather Forecast

Advertisements
Track Severe Weather on mobile